Time;durP1;ratioP1;P1;durP2;ratioP2;P2;SDS_P1;SDS_P2;PMS_P1;PMS_P2;Temp;Humidity;BMP_temperature;BMP_pressure;BME280_temperature;BME280_humidity;BME280_pressure;Samples;Min_cycle;Max_cycle;Signal;HPM_P1;HPM_P2
2022/09/08 00:02:16;;;;;;;3.42;3.13;;;;;;;;;;5023229;28;20046;-75
2022/09/08 00:04:43;;;;;;;2.97;2.78;;;;;;;;;;5025615;28;20049;-75
2022/09/08 00:07:09;;;;;;;2.47;2.28;;;;;;;;;;5025469;28;20128;-75
2022/09/08 00:09:35;;;;;;;2.80;2.60;;;;;;;;;;5025490;28;20288;-75
2022/09/08 00:12:02;;;;;;;2.60;2.40;;;;;;;;;;5023083;28;20107;-75
2022/09/08 00:14:29;;;;;;;3.03;2.83;;;;;;;;;;5025774;28;20048;-75
2022/09/08 00:16:55;;;;;;;2.53;2.22;;;;;;;;;;5025102;28;20099;-75
2022/09/08 00:19:22;;;;;;;2.78;2.58;;;;;;;;;;5023489;28;20053;-75
2022/09/08 00:21:48;;;;;;;3.35;2.17;;;;;;;;;;5023341;28;20052;-75
2022/09/08 00:24:14;;;;;;;2.60;2.40;;;;;;;;;;5024845;28;20038;-75
2022/09/08 00:26:40;;;;;;;2.72;2.53;;;;;;;;;;5025327;28;20064;-75
2022/09/08 00:29:06;;;;;;;2.63;2.42;;;;;;;;;;5023748;28;20041;-76
2022/09/08 00:31:36;;;;;;;1.95;1.85;;;;;;;;;;5024618;28;20041;-76
2022/09/08 00:34:02;;;;;;;1.80;1.70;;;;;;;;;;5024812;28;20509;-75
2022/09/08 00:36:29;;;;;;;1.02;0.93;;;;;;;;;;5024045;28;20136;-75
2022/09/08 00:38:56;;;;;;;1.50;1.40;;;;;;;;;;5022878;28;20053;-75
2022/09/08 00:41:23;;;;;;;1.20;1.10;;;;;;;;;;5025161;28;20058;-75
2022/09/08 00:43:50;;;;;;;1.40;1.30;;;;;;;;;;5024622;28;20057;-76
2022/09/08 00:46:22;;;;;;;1.40;1.30;;;;;;;;;;5024451;28;20056;-75
2022/09/08 00:48:53;;;;;;;1.13;1.05;;;;;;;;;;5021903;28;20176;-75
2022/09/08 00:51:19;;;;;;;1.70;1.60;;;;;;;;;;5024860;28;20048;-75
2022/09/08 00:53:46;;;;;;;1.08;1.08;;;;;;;;;;5024241;28;20056;-75
2022/09/08 00:56:12;;;;;;;1.70;1.60;;;;;;;;;;5025467;28;20155;-75
2022/09/08 00:58:39;;;;;;;1.25;1.00;;;;;;;;;;5023715;28;20053;-75
2022/09/08 01:01:06;;;;;;;1.58;1.40;;;;;;;;;;5023794;28;20476;-75
2022/09/08 01:03:32;;;;;;;1.80;1.65;;;;;;;;;;5024685;28;20046;-75
2022/09/08 01:06:05;;;;;;;1.58;1.48;;;;;;;;;;5022829;28;20049;-75
2022/09/08 01:14:46;;;;;;;0.98;0.98;;;;;;;;;;5022933;28;20057;-75
2022/09/08 01:17:24;;;;;;;1.20;1.20;;;;;;;;;;5022581;28;20049;-75
2022/09/08 01:19:50;;;;;;;1.70;1.60;;;;;;;;;;5020547;28;20038;-75
2022/09/08 01:22:35;;;;;;;1.60;1.50;;;;;;;;;;5021908;28;20133;-75
2022/09/08 01:25:22;;;;;;;1.20;1.15;;;;;;;;;;5022834;28;20053;-76
2022/09/08 01:27:49;;;;;;;1.40;1.30;;;;;;;;;;5023484;28;20048;-75
2022/09/08 01:30:15;;;;;;;1.63;1.52;;;;;;;;;;5024794;28;20483;-75
2022/09/08 01:32:43;;;;;;;1.33;1.23;;;;;;;;;;5023814;28;20068;-75
2022/09/08 01:35:09;;;;;;;1.95;1.75;;;;;;;;;;5023244;28;20064;-75
2022/09/08 01:37:35;;;;;;;2.30;2.08;;;;;;;;;;5024607;28;20208;-75
2022/09/08 01:40:03;;;;;;;2.28;2.13;;;;;;;;;;5022713;28;20054;-75
2022/09/08 01:42:29;;;;;;;2.25;2.05;;;;;;;;;;5021237;28;20056;-75
2022/09/08 01:44:56;;;;;;;2.10;2.00;;;;;;;;;;5024069;28;20041;-76
2022/09/08 01:47:22;;;;;;;2.55;2.35;;;;;;;;;;5022494;28;20052;-75
2022/09/08 01:49:47;;;;;;;3.40;3.15;;;;;;;;;;5022103;28;20045;-75
2022/09/08 01:52:14;;;;;;;3.47;3.28;;;;;;;;;;5022882;28;20044;-76
2022/09/08 01:54:40;;;;;;;3.65;3.38;;;;;;;;;;5023240;28;20073;-75
2022/09/08 01:57:06;;;;;;;3.42;3.13;;;;;;;;;;5022118;28;20968;-76
2022/09/08 01:59:32;;;;;;;3.15;2.95;;;;;;;;;;5024393;28;20080;-75
2022/09/08 02:01:58;;;;;;;2.60;2.40;;;;;;;;;;5023554;28;20132;-75
2022/09/08 02:04:24;;;;;;;3.00;2.80;;;;;;;;;;5023691;28;20046;-76
2022/09/08 02:06:51;;;;;;;4.10;3.80;;;;;;;;;;5022279;28;20119;-76
2022/09/08 02:09:17;;;;;;;3.58;3.38;;;;;;;;;;5024450;28;20052;-76
2022/09/08 02:11:43;;;;;;;3.20;2.90;;;;;;;;;;5024200;28;20050;-75
2022/09/08 02:14:09;;;;;;;2.80;2.60;;;;;;;;;;5023824;28;20041;-76
2022/09/08 02:16:36;;;;;;;2.25;2.15;;;;;;;;;;5022823;28;20080;-76
2022/09/08 02:19:02;;;;;;;2.13;1.95;;;;;;;;;;5022918;28;20506;-76
2022/09/08 02:21:28;;;;;;;3.60;3.30;;;;;;;;;;5024173;28;20081;-75
2022/09/08 02:23:54;;;;;;;3.83;3.58;;;;;;;;;;5023124;28;20505;-75
2022/09/08 02:26:22;;;;;;;5.15;4.70;;;;;;;;;;5022551;28;20446;-75
2022/09/08 02:28:51;;;;;;;3.50;3.30;;;;;;;;;;5023818;28;20091;-76
2022/09/08 02:31:17;;;;;;;3.20;2.90;;;;;;;;;;5023313;28;20084;-76
2022/09/08 02:33:43;;;;;;;2.80;2.60;;;;;;;;;;5026961;28;20033;-76
2022/09/08 02:36:10;;;;;;;2.10;2.00;;;;;;;;;;5026078;28;20061;-76
2022/09/08 02:38:36;;;;;;;4.72;4.38;;;;;;;;;;5025874;28;20049;-76
2022/09/08 02:41:02;;;;;;;3.42;3.20;;;;;;;;;;5027244;28;20064;-76
2022/09/08 02:43:29;;;;;;;3.30;3.10;;;;;;;;;;5026476;28;20073;-76
2022/09/08 02:45:55;;;;;;;2.63;2.42;;;;;;;;;;5026216;28;20054;-76
2022/09/08 02:48:23;;;;;;;2.08;1.98;;;;;;;;;;5027343;28;20077;-76
2022/09/08 02:50:49;;;;;;;2.33;2.22;;;;;;;;;;5025795;28;20550;-76
2022/09/08 02:53:16;;;;;;;2.05;1.95;;;;;;;;;;5025975;28;20051;-76
2022/09/08 02:55:42;;;;;;;3.47;2.75;;;;;;;;;;5026785;28;20050;-76
2022/09/08 02:58:09;;;;;;;2.92;2.72;;;;;;;;;;5024847;28;20054;-76
2022/09/08 03:00:36;;;;;;;2.08;1.98;;;;;;;;;;5026374;28;20260;-76
2022/09/08 03:03:02;;;;;;;2.75;2.55;;;;;;;;;;5026354;28;20099;-76
2022/09/08 03:05:29;;;;;;;1.90;1.80;;;;;;;;;;5025655;28;20053;-76
2022/09/08 03:07:55;;;;;;;2.20;2.00;;;;;;;;;;5024315;28;20088;-76
2022/09/08 03:10:23;;;;;;;1.80;1.70;;;;;;;;;;5024307;28;20048;-76
2022/09/08 03:12:50;;;;;;;3.20;2.72;;;;;;;;;;5026366;28;20060;-75
2022/09/08 03:15:16;;;;;;;2.20;2.10;;;;;;;;;;5025957;28;20605;-76
2022/09/08 03:17:42;;;;;;;2.10;2.00;;;;;;;;;;5027482;28;20085;-75
2022/09/08 03:20:08;;;;;;;1.75;1.65;;;;;;;;;;5025924;28;20041;-76
2022/09/08 03:22:34;;;;;;;2.20;2.10;;;;;;;;;;5025990;28;20430;-76
2022/09/08 03:25:00;;;;;;;1.85;1.75;;;;;;;;;;5026190;28;20111;-76
2022/09/08 03:27:27;;;;;;;2.17;2.08;;;;;;;;;;5025601;28;20545;-76
2022/09/08 03:29:54;;;;;;;2.30;2.20;;;;;;;;;;5024869;28;20061;-76
2022/09/08 03:32:20;;;;;;;2.58;2.42;;;;;;;;;;5025112;28;20036;-76
2022/09/08 03:34:46;;;;;;;2.00;1.90;;;;;;;;;;5025421;28;20046;-76
2022/09/08 03:37:12;;;;;;;1.58;1.48;;;;;;;;;;5026938;28;20373;-76
2022/09/08 03:39:38;;;;;;;2.08;1.98;;;;;;;;;;5026199;28;20084;-76
2022/09/08 03:42:05;;;;;;;2.50;2.30;;;;;;;;;;5023828;28;20053;-76
2022/09/08 03:44:31;;;;;;;2.47;2.28;;;;;;;;;;5025380;28;20488;-76
2022/09/08 03:46:57;;;;;;;2.80;2.60;;;;;;;;;;5024167;28;20595;-76
2022/09/08 03:49:23;;;;;;;3.30;3.00;;;;;;;;;;5024242;28;20046;-76
2022/09/08 03:51:49;;;;;;;3.58;3.28;;;;;;;;;;5025395;28;20053;-76
2022/09/08 03:57:00;;;;;;;3.78;3.47;;;;;;;;;;5022584;28;20045;-76
2022/09/08 03:59:26;;;;;;;4.10;3.75;;;;;;;;;;5024673;28;20050;-76
2022/09/08 04:01:53;;;;;;;4.53;4.13;;;;;;;;;;5023729;28;20088;-76
2022/09/08 04:04:22;;;;;;;4.72;4.32;;;;;;;;;;5025475;28;20069;-76
2022/09/08 04:06:48;;;;;;;4.40;4.07;;;;;;;;;;5024072;28;20056;-76
2022/09/08 04:09:14;;;;;;;3.83;3.53;;;;;;;;;;5025627;28;20049;-76
2022/09/08 04:11:40;;;;;;;4.10;3.80;;;;;;;;;;5023286;28;20053;-76
2022/09/08 04:14:06;;;;;;;5.03;4.63;;;;;;;;;;5025153;28;20045;-76
2022/09/08 04:16:33;;;;;;;5.18;4.78;;;;;;;;;;5025082;28;20722;-76
2022/09/08 04:18:59;;;;;;;4.05;3.75;;;;;;;;;;5023831;28;20451;-76
2022/09/08 04:21:25;;;;;;;3.75;3.55;;;;;;;;;;5023997;28;20054;-76
2022/09/08 04:23:52;;;;;;;3.33;3.13;;;;;;;;;;5023229;28;20450;-76
2022/09/08 04:26:18;;;;;;;2.85;2.65;;;;;;;;;;5025589;28;20041;-76
2022/09/08 04:28:44;;;;;;;2.58;2.38;;;;;;;;;;5025593;28;20356;-76
2022/09/08 04:31:11;;;;;;;2.38;2.17;;;;;;;;;;5024956;28;20176;-76
2022/09/08 04:33:38;;;;;;;2.67;2.47;;;;;;;;;;5024577;28;20037;-76
2022/09/08 04:36:07;;;;;;;3.53;3.22;;;;;;;;;;5024574;28;20136;-76
2022/09/08 04:38:33;;;;;;;3.28;2.95;;;;;;;;;;5023875;28;20041;-76
2022/09/08 04:41:03;;;;;;;2.70;2.50;;;;;;;;;;5022812;28;20099;-76
2022/09/08 04:43:30;;;;;;;3.00;2.80;;;;;;;;;;5025261;28;20079;-76
2022/09/08 04:45:59;;;;;;;4.85;4.47;;;;;;;;;;5022004;28;20152;-75
2022/09/08 04:48:25;;;;;;;5.22;4.82;;;;;;;;;;5023521;28;20048;-76
2022/09/08 04:50:52;;;;;;;6.10;5.60;;;;;;;;;;5024359;28;20045;-76
2022/09/08 04:53:18;;;;;;;6.35;5.85;;;;;;;;;;5022742;28;20069;-75
2022/09/08 04:55:44;;;;;;;5.85;5.43;;;;;;;;;;5024568;28;20784;-76
2022/09/08 04:58:10;;;;;;;4.88;4.57;;;;;;;;;;5023276;28;20187;-76
2022/09/08 05:00:37;;;;;;;5.10;4.70;;;;;;;;;;5024040;28;20068;-76
2022/09/08 05:03:03;;;;;;;5.88;5.38;;;;;;;;;;5021780;28;20053;-76
2022/09/08 05:05:29;;;;;;;6.47;5.93;;;;;;;;;;5022779;28;20050;-76
2022/09/08 05:07:55;;;;;;;5.97;5.53;;;;;;;;;;5022335;28;20057;-76
2022/09/08 05:10:22;;;;;;;5.30;4.90;;;;;;;;;;5022490;28;20041;-76
2022/09/08 05:12:48;;;;;;;4.28;3.97;;;;;;;;;;5023950;28;20045;-76
2022/09/08 05:15:14;;;;;;;3.75;3.45;;;;;;;;;;5024482;28;20067;-76
2022/09/08 05:17:40;;;;;;;3.17;2.97;;;;;;;;;;5024192;28;20515;-76
2022/09/08 05:20:07;;;;;;;2.45;2.25;;;;;;;;;;5021861;28;20123;-76
2022/09/08 05:22:33;;;;;;;2.78;2.58;;;;;;;;;;5024364;28;20060;-76
2022/09/08 05:25:00;;;;;;;2.78;2.58;;;;;;;;;;5022458;28;20042;-76
2022/09/08 05:27:26;;;;;;;2.40;2.22;;;;;;;;;;5024072;28;20508;-76
2022/09/08 05:29:52;;;;;;;2.30;2.10;;;;;;;;;;5021735;28;20132;-76
2022/09/08 05:32:18;;;;;;;2.80;2.60;;;;;;;;;;5023219;28;20313;-75
2022/09/08 05:34:44;;;;;;;1.73;1.63;;;;;;;;;;5020764;28;20396;-76
2022/09/08 05:37:10;;;;;;;4.13;3.83;;;;;;;;;;5024184;28;20044;-76
2022/09/08 05:39:36;;;;;;;2.90;2.70;;;;;;;;;;5023304;28;20496;-76
2022/09/08 05:42:02;;;;;;;2.60;2.40;;;;;;;;;;5021811;28;20103;-76
2022/09/08 05:44:28;;;;;;;2.08;1.98;;;;;;;;;;5024291;28;20037;-76
2022/09/08 05:46:54;;;;;;;2.15;2.05;;;;;;;;;;5023279;28;20044;-76
2022/09/08 05:49:20;;;;;;;2.05;1.95;;;;;;;;;;5023102;28;20259;-76
2022/09/08 05:51:46;;;;;;;2.33;2.13;;;;;;;;;;5022770;28;20045;-76
2022/09/08 05:54:12;;;;;;;2.80;2.60;;;;;;;;;;5022944;28;20072;-76
2022/09/08 05:56:38;;;;;;;2.45;2.25;;;;;;;;;;5021147;28;20053;-76
2022/09/08 05:59:04;;;;;;;2.20;2.10;;;;;;;;;;5019026;28;20053;-76
2022/09/08 06:01:31;;;;;;;3.35;3.10;;;;;;;;;;5022987;28;20045;-76
2022/09/08 06:03:59;;;;;;;3.10;2.90;;;;;;;;;;5022714;28;20042;-76
2022/09/08 06:06:25;;;;;;;4.43;4.13;;;;;;;;;;5022496;28;20452;-76
2022/09/08 06:08:52;;;;;;;3.40;3.20;;;;;;;;;;5026821;28;20575;-76
2022/09/08 06:11:18;;;;;;;3.17;2.97;;;;;;;;;;5025683;28;20053;-76
2022/09/08 06:13:44;;;;;;;3.33;3.13;;;;;;;;;;5027382;28;20041;-76
2022/09/08 06:16:12;;;;;;;2.83;2.63;;;;;;;;;;5022909;28;20041;-74
2022/09/08 06:18:40;;;;;;;2.83;2.63;;;;;;;;;;5024799;28;20055;-75
2022/09/08 06:21:10;;;;;;;2.65;2.45;;;;;;;;;;5025974;28;20855;-75
2022/09/08 06:23:36;;;;;;;2.75;2.63;;;;;;;;;;5025865;28;20152;-75
2022/09/08 06:26:14;;;;;;;3.65;3.35;;;;;;;;;;5022651;28;20438;-75
2022/09/08 06:28:44;;;;;;;3.20;3.00;;;;;;;;;;5025607;28;20369;-73
2022/09/08 06:31:11;;;;;;;3.22;3.03;;;;;;;;;;5026478;28;20052;-73
2022/09/08 06:33:40;;;;;;;3.20;3.00;;;;;;;;;;5027155;28;20050;-73
2022/09/08 06:36:33;;;;;;;3.08;2.88;;;;;;;;;;5026616;28;20060;-73
2022/09/08 06:38:59;;;;;;;;;;;;;;;;;;5023810;28;20092;-72
2022/09/08 06:41:27;;;;;;;15.88;14.48;;;;;;;;;;5026575;28;19924;-73
2022/09/08 06:43:55;;;;;;;13.73;12.48;;;;;;;;;;5027947;28;20125;-73
2022/09/08 06:46:25;;;;;;;10.80;9.80;;;;;;;;;;5027334;28;20072;-73
2022/09/08 06:48:53;;;;;;;14.20;12.85;;;;;;;;;;5027566;28;20525;-73
2022/09/08 06:51:42;;;;;;;10.20;9.20;;;;;;;;;;5026074;28;20042;-72
2022/09/08 06:54:11;;;;;;;10.77;9.88;;;;;;;;;;5017835;28;20121;-73
2022/09/08 06:56:40;;;;;;;7.05;6.47;;;;;;;;;;5026199;28;20045;-72
2022/09/08 06:59:13;;;;;;;6.30;5.80;;;;;;;;;;5025491;28;20064;-72
2022/09/08 07:01:54;;;;;;;4.80;4.50;;;;;;;;;;5026680;28;20377;-72
2022/09/08 07:04:20;;;;;;;4.55;4.15;;;;;;;;;;5021342;28;20037;-72
2022/09/08 07:06:49;;;;;;;5.85;5.35;;;;;;;;;;5022954;28;20393;-72
2022/09/08 07:09:15;;;;;;;5.03;4.65;;;;;;;;;;5025409;28;20069;-72
2022/09/08 07:11:59;;;;;;;7.63;7.03;;;;;;;;;;5026287;28;20087;-72
2022/09/08 07:14:28;;;;;;;6.40;5.90;;;;;;;;;;5017043;28;20419;-72
2022/09/08 07:17:13;;;;;;;6.72;6.13;;;;;;;;;;5026293;28;20071;-72
2022/09/08 07:19:42;;;;;;;4.88;4.47;;;;;;;;;;5017260;28;20041;-72
2022/09/08 07:22:18;;;;;;;4.90;4.53;;;;;;;;;;5026080;28;20623;-72
2022/09/08 07:24:47;;;;;;;5.93;5.53;;;;;;;;;;5025694;28;20107;-72
2022/09/08 07:27:14;;;;;;;5.68;5.20;;;;;;;;;;5023654;28;20040;-72
2022/09/08 07:29:46;;;;;;;6.22;5.72;;;;;;;;;;5025791;28;20049;-72
2022/09/08 07:32:14;;;;;;;10.95;9.95;;;;;;;;;;5027612;28;20084;-72
2022/09/08 07:34:46;;;;;;;13.68;12.43;;;;;;;;;;5026544;28;20442;-66
2022/09/08 07:37:12;;;;;;;11.07;10.18;;;;;;;;;;5026617;28;20483;-62
2022/09/08 07:39:56;;;;;;;10.57;9.70;;;;;;;;;;5026818;28;20060;-67
2022/09/08 07:42:22;;;;;;;12.13;11.02;;;;;;;;;;5025035;28;20081;-69
2022/09/08 07:44:55;;;;;;;9.07;8.27;;;;;;;;;;5025406;28;20041;-68
2022/09/08 07:47:44;;;;;;;8.85;7.97;;;;;;;;;;5025639;28;20057;-74
2022/09/08 07:50:19;;;;;;;9.90;9.07;;;;;;;;;;5019860;28;20164;-73
2022/09/08 07:52:49;;;;;;;9.98;9.18;;;;;;;;;;5028944;28;20038;-74
2022/09/08 07:55:15;;;;;;;11.52;10.43;;;;;;;;;;5026537;28;20052;-74
2022/09/08 07:57:56;;;;;;;10.10;9.20;;;;;;;;;;5025110;28;20057;-74
2022/09/08 08:00:22;;;;;;;9.23;8.50;;;;;;;;;;5026656;28;20042;-75
2022/09/08 08:02:58;;;;;;;11.68;10.63;;;;;;;;;;5023934;28;20840;-75
2022/09/08 08:05:32;;;;;;;14.25;12.85;;;;;;;;;;5025422;28;20419;-74
2022/09/08 08:08:04;;;;;;;14.25;12.75;;;;;;;;;;5024969;28;20057;-74
2022/09/08 08:10:38;;;;;;;13.80;12.60;;;;;;;;;;5023999;28;20045;-74
2022/09/08 08:13:12;;;;;;;17.98;16.27;;;;;;;;;;5021189;28;20377;-74
2022/09/08 08:15:52;;;;;;;11.65;10.65;;;;;;;;;;5026410;28;20041;-75
2022/09/08 08:18:19;;;;;;;12.15;11.13;;;;;;;;;;5024663;28;20041;-76
2022/09/08 08:20:53;;;;;;;11.23;10.20;;;;;;;;;;5026287;28;20033;-77
2022/09/08 08:23:31;;;;;;;12.18;11.07;;;;;;;;;;5025585;28;20049;-75
2022/09/08 08:25:57;;;;;;;9.15;8.35;;;;;;;;;;5026102;28;20045;-76
2022/09/08 08:28:31;;;;;;;8.85;8.05;;;;;;;;;;5026044;28;20132;-76
2022/09/08 08:31:00;;;;;;;5.43;5.03;;;;;;;;;;5022878;28;20083;-76
2022/09/08 08:33:30;;;;;;;3.63;3.38;;;;;;;;;;5024888;28;20404;-76
2022/09/08 08:36:00;;;;;;;3.97;3.67;;;;;;;;;;5025514;28;20132;-78
2022/09/08 08:38:31;;;;;;;3.20;3.00;;;;;;;;;;5024707;28;20060;-79
2022/09/08 08:40:58;;;;;;;2.38;2.28;;;;;;;;;;5025672;28;20041;-79
2022/09/08 08:43:33;;;;;;;2.00;1.90;;;;;;;;;;5017890;28;20088;-79
2022/09/08 08:46:18;;;;;;;1.80;1.70;;;;;;;;;;5022532;28;20137;-78
2022/09/08 08:49:02;;;;;;;2.60;2.38;;;;;;;;;;5025074;28;20087;-78
2022/09/08 08:51:47;;;;;;;2.13;2.03;;;;;;;;;;5024108;28;20067;-78
2022/09/08 08:54:14;;;;;;;2.00;1.90;;;;;;;;;;5013275;28;20050;-79
2022/09/08 08:56:59;;;;;;;4.32;4.03;;;;;;;;;;5006506;28;20555;-78
2022/09/08 08:59:25;;;;;;;2.40;2.30;;;;;;;;;;5004171;28;20046;-80
2022/09/08 09:02:09;;;;;;;2.72;2.53;;;;;;;;;;5017539;28;20060;-80
2022/09/08 09:05:03;;;;;;;2.67;2.47;;;;;;;;;;5023707;28;20198;-76
2022/09/08 09:07:39;;;;;;;2.05;1.95;;;;;;;;;;5025500;28;20629;-77
2022/09/08 09:10:05;;;;;;;1.35;1.25;;;;;;;;;;5024167;28;20502;-76
2022/09/08 09:12:31;;;;;;;1.42;1.33;;;;;;;;;;5024887;28;20129;-77
2022/09/08 09:15:00;;;;;;;1.42;1.33;;;;;;;;;;5023340;28;20057;-81
2022/09/08 09:17:32;;;;;;;1.38;1.27;;;;;;;;;;5009364;28;20041;-82
2022/09/08 09:19:57;;;;;;;;;;;;;;;;;;5005632;28;20082;-80
2022/09/08 09:22:23;;;;;;;1.05;0.93;;;;;;;;;;5006268;28;19968;-81
2022/09/08 09:25:01;;;;;;;1.02;1.02;;;;;;;;;;5020194;28;20160;-81
2022/09/08 09:27:33;;;;;;;1.25;1.10;;;;;;;;;;5004170;28;20057;-81
2022/09/08 09:30:16;;;;;;;0.75;0.70;;;;;;;;;;5004209;28;20077;-81
2022/09/08 09:32:47;;;;;;;0.50;0.50;;;;;;;;;;5005007;28;20120;-80
2022/09/08 09:35:27;;;;;;;0.40;0.40;;;;;;;;;;5004492;28;20045;-81
2022/09/08 09:38:00;;;;;;;0.30;0.30;;;;;;;;;;5019777;28;20129;-81
2022/09/08 09:40:46;;;;;;;0.50;0.50;;;;;;;;;;5021834;28;20099;-80
2022/09/08 09:43:35;;;;;;;0.50;0.50;;;;;;;;;;5022928;28;20053;-80
2022/09/08 09:46:16;;;;;;;0.40;0.40;;;;;;;;;;5028794;28;20053;-81
2022/09/08 09:48:51;;;;;;;0.30;0.30;;;;;;;;;;5029380;28;20134;-81
2022/09/08 09:51:23;;;;;;;0.60;0.60;;;;;;;;;;5028165;28;20152;-80
2022/09/08 09:54:09;;;;;;;0.40;0.40;;;;;;;;;;5028523;28;20077;-80
2022/09/08 09:56:44;;;;;;;0.60;0.60;;;;;;;;;;5028043;28;20353;-81
2022/09/08 09:59:16;;;;;;;1.25;1.10;;;;;;;;;;5023391;28;20424;-81
2022/09/08 10:01:42;;;;;;;;;;;;;;;;;;5023511;28;20050;-81
2022/09/08 10:04:20;;;;;;;1.27;1.17;;;;;;;;;;5026592;28;19921;-80
2022/09/08 10:06:50;;;;;;;1.15;1.08;;;;;;;;;;5024013;28;20389;-81
2022/09/08 10:09:39;;;;;;;1.02;0.93;;;;;;;;;;5026000;28;20475;-80
2022/09/08 10:12:12;;;;;;;0.43;0.43;;;;;;;;;;5013787;28;20412;-81
2022/09/08 10:14:50;;;;;;;0.68;0.52;;;;;;;;;;5007172;28;20399;-79
2022/09/08 10:17:43;;;;;;;0.40;0.40;;;;;;;;;;5024379;28;20049;-81
2022/09/08 10:20:28;;;;;;;0.40;0.40;;;;;;;;;;5028285;28;20500;-81
2022/09/08 10:22:54;;;;;;;0.52;0.52;;;;;;;;;;5025357;28;20190;-80
2022/09/08 10:25:39;;;;;;;0.68;0.68;;;;;;;;;;5026071;28;21003;-80
2022/09/08 10:28:24;;;;;;;0.60;0.60;;;;;;;;;;5026009;28;20056;-80
2022/09/08 10:31:09;;;;;;;0.57;0.57;;;;;;;;;;5023249;28;20041;-81
2022/09/08 10:33:38;;;;;;;0.82;0.82;;;;;;;;;;5028120;28;20447;-81
2022/09/08 10:36:11;;;;;;;0.60;0.60;;;;;;;;;;5026818;28;20143;-79
2022/09/08 10:38:49;;;;;;;0.55;0.55;;;;;;;;;;5026738;28;20049;-79
2022/09/08 10:41:34;;;;;;;1.20;0.70;;;;;;;;;;5027271;28;20045;-80
2022/09/08 10:44:19;;;;;;;0.50;0.50;;;;;;;;;;5025988;28;20042;-79
2022/09/08 10:47:08;;;;;;;0.88;0.88;;;;;;;;;;5027004;28;20041;-80
2022/09/08 10:49:44;;;;;;;0.93;0.70;;;;;;;;;;5019098;28;20472;-77
2022/09/08 10:52:26;;;;;;;0.50;0.50;;;;;;;;;;5024936;28;20049;-77
2022/09/08 10:55:01;;;;;;;0.82;0.60;;;;;;;;;;5016086;28;20103;-77
2022/09/08 10:57:30;;;;;;;1.75;0.73;;;;;;;;;;5023592;28;20124;-77
2022/09/08 11:00:08;;;;;;;0.50;0.50;;;;;;;;;;5025582;28;20479;-77
2022/09/08 11:02:40;;;;;;;0.80;0.80;;;;;;;;;;5025948;28;20057;-77
2022/09/08 11:05:06;;;;;;;;;;;;;;;;;;5023648;28;20491;-76
2022/09/08 11:07:58;;;;;;;0.70;0.70;;;;;;;;;;5027294;28;19927;-77
2022/09/08 11:10:26;;;;;;;0.75;0.73;;;;;;;;;;5027041;28;20064;-77
2022/09/08 11:12:56;;;;;;;0.57;0.57;;;;;;;;;;5025027;28;20049;-77
2022/09/08 11:15:25;;;;;;;0.70;0.70;;;;;;;;;;5025765;28;20061;-77
2022/09/08 11:17:52;;;;;;;0.50;0.50;;;;;;;;;;5026267;28;20049;-77
2022/09/08 11:20:24;;;;;;;0.50;0.50;;;;;;;;;;5023449;28;20108;-77
2022/09/08 11:22:50;;;;;;;;;;;;;;;;;;5022652;28;20081;-77
2022/09/08 11:25:41;;;;;;;0.30;0.30;;;;;;;;;;5023568;28;20343;-78
2022/09/08 11:28:25;;;;;;;0.60;0.60;;;;;;;;;;5026050;28;20068;-76
2022/09/08 11:31:00;;;;;;;0.32;0.32;;;;;;;;;;5025175;28;20099;-76
2022/09/08 11:33:35;;;;;;;0.50;0.50;;;;;;;;;;5026308;28;20175;-76
2022/09/08 11:36:02;;;;;;;0.30;0.30;;;;;;;;;;5026273;28;20054;-76
2022/09/08 11:38:34;;;;;;;1.42;0.75;;;;;;;;;;5017172;28;20054;-76
2022/09/08 11:41:19;;;;;;;0.30;0.30;;;;;;;;;;5025742;28;20046;-76
2022/09/08 11:43:48;;;;;;;0.80;0.50;;;;;;;;;;5026875;28;20045;-77
2022/09/08 11:46:17;;;;;;;0.30;0.30;;;;;;;;;;5027250;28;20218;-78
2022/09/08 11:48:55;;;;;;;0.40;0.40;;;;;;;;;;5025888;28;20175;-77
2022/09/08 11:51:21;;;;;;;0.30;0.30;;;;;;;;;;5025776;28;20427;-78
2022/09/08 11:53:59;;;;;;;0.45;0.30;;;;;;;;;;5025795;28;20056;-77
2022/09/08 11:56:44;;;;;;;0.60;0.40;;;;;;;;;;5025535;28;20049;-78
2022/09/08 11:59:10;;;;;;;0.28;0.28;;;;;;;;;;5026645;28;20057;-78
2022/09/08 12:01:56;;;;;;;0.68;0.40;;;;;;;;;;5024604;28;20045;-78
2022/09/08 12:04:27;;;;;;;0.52;0.30;;;;;;;;;;5026432;28;20500;-78
2022/09/08 12:07:12;;;;;;;0.43;0.30;;;;;;;;;;5025063;28;20808;-77
2022/09/08 12:09:51;;;;;;;0.30;0.30;;;;;;;;;;5024947;28;20045;-78
2022/09/08 12:12:31;;;;;;;0.47;0.20;;;;;;;;;;5026424;28;20511;-78
2022/09/08 12:14:58;;;;;;;0.75;0.28;;;;;;;;;;5025663;28;20496;-78
2022/09/08 12:17:38;;;;;;;0.20;0.20;;;;;;;;;;5026509;28;20466;-78
2022/09/08 12:20:13;;;;;;;0.55;0.10;;;;;;;;;;5024642;28;20054;-78
2022/09/08 12:22:51;;;;;;;0.10;0.10;;;;;;;;;;5025957;28;20049;-77
2022/09/08 12:25:36;;;;;;;0.55;0.28;;;;;;;;;;5024752;28;20049;-78
2022/09/08 12:28:21;;;;;;;0.47;0.30;;;;;;;;;;5024734;28;20132;-80
2022/09/08 12:30:46;;;;;;;0.22;0.17;;;;;;;;;;5024949;28;20434;-81
2022/09/08 12:33:12;;;;;;;0.32;0.25;;;;;;;;;;5026734;28;20708;-80
2022/09/08 12:35:56;;;;;;;0.55;0.22;;;;;;;;;;5025972;28;20051;-79
2022/09/08 12:38:41;;;;;;;0.50;0.40;;;;;;;;;;5025510;28;20099;-80
2022/09/08 12:41:27;;;;;;;0.20;0.20;;;;;;;;;;5025791;28;20057;-78
2022/09/08 12:44:08;;;;;;;0.57;0.30;;;;;;;;;;5024944;28;20466;-77
2022/09/08 12:46:34;;;;;;;0.68;0.60;;;;;;;;;;5026240;28;20072;-77
2022/09/08 12:49:06;;;;;;;0.85;0.50;;;;;;;;;;5025682;28;20045;-79
2022/09/08 12:51:33;;;;;;;1.05;0.50;;;;;;;;;;5023592;28;20049;-78
2022/09/08 12:54:11;;;;;;;1.38;0.60;;;;;;;;;;5024063;28;20128;-77
2022/09/08 12:56:48;;;;;;;0.75;0.52;;;;;;;;;;5023921;28;20512;-77
2022/09/08 12:59:23;;;;;;;1.13;0.30;;;;;;;;;;5022023;28;20124;-80
2022/09/08 13:01:54;;;;;;;0.55;0.40;;;;;;;;;;5021202;28;20041;-76
2022/09/08 13:04:38;;;;;;;0.82;0.60;;;;;;;;;;5016939;28;20157;-77
2022/09/08 13:07:16;;;;;;;0.50;0.40;;;;;;;;;;5016380;28;20407;-77
2022/09/08 13:09:52;;;;;;;0.68;0.50;;;;;;;;;;5020412;28;20119;-77
2022/09/08 13:12:21;;;;;;;0.52;0.52;;;;;;;;;;5016728;28;20045;-77
2022/09/08 13:15:14;;;;;;;0.85;0.60;;;;;;;;;;5022115;28;20045;-77
2022/09/08 13:17:46;;;;;;;1.10;0.50;;;;;;;;;;5017458;28;20049;-77
2022/09/08 13:20:31;;;;;;;0.30;0.30;;;;;;;;;;5023541;28;20545;-77
2022/09/08 13:23:00;;;;;;;0.25;0.20;;;;;;;;;;5016249;28;20053;-77
2022/09/08 13:25:30;;;;;;;0.22;0.22;;;;;;;;;;5012494;28;20506;-78
2022/09/08 13:28:02;;;;;;;0.70;0.30;;;;;;;;;;5013600;28;20056;-78
2022/09/08 13:30:28;;;;;;;;;;;;;;;;;;5019433;28;20042;-79
2022/09/08 13:33:12;;;;;;;0.43;0.43;;;;;;;;;;5015005;28;19975;-76
2022/09/08 13:35:47;;;;;;;1.17;0.68;;;;;;;;;;5004969;28;20124;-77
2022/09/08 13:38:32;;;;;;;1.08;0.98;;;;;;;;;;5004509;28;20057;-76
2022/09/08 13:41:05;;;;;;;0.47;0.47;;;;;;;;;;5003729;28;20056;-76
2022/09/08 13:43:36;;;;;;;0.93;0.80;;;;;;;;;;5005612;28;20562;-77
2022/09/08 13:46:11;;;;;;;1.00;1.00;;;;;;;;;;5003936;28;20046;-77
2022/09/08 13:48:53;;;;;;;1.00;0.85;;;;;;;;;;5005127;28;20056;-78
2022/09/08 13:51:36;;;;;;;0.65;0.60;;;;;;;;;;5005510;28;20046;-78
2022/09/08 13:54:21;;;;;;;0.98;0.77;;;;;;;;;;5010645;28;20033;-81
2022/09/08 13:56:59;;;;;;;1.33;1.08;;;;;;;;;;5023440;28;20087;-77
2022/09/08 13:59:47;;;;;;;0.60;0.60;;;;;;;;;;5019253;28;20058;-77
2022/09/08 14:02:17;;;;;;;0.50;0.50;;;;;;;;;;5010920;28;20770;-78
2022/09/08 14:04:46;;;;;;;0.95;0.80;;;;;;;;;;5024013;28;20056;-77
2022/09/08 14:07:25;;;;;;;1.63;0.90;;;;;;;;;;5024198;28;20430;-77
2022/09/08 14:10:10;;;;;;;1.48;1.38;;;;;;;;;;5024953;28;20046;-76
2022/09/08 14:12:36;;;;;;;1.27;1.17;;;;;;;;;;5025145;28;20412;-76
2022/09/08 14:15:04;;;;;;;1.30;1.20;;;;;;;;;;5022902;28;20430;-75
2022/09/08 14:17:48;;;;;;;0.90;0.90;;;;;;;;;;5003871;28;20042;-76
2022/09/08 14:20:24;;;;;;;1.27;1.20;;;;;;;;;;5003985;28;20046;-75
2022/09/08 14:22:57;;;;;;;1.58;1.48;;;;;;;;;;5012068;28;20499;-75
2022/09/08 14:25:34;;;;;;;1.70;1.60;;;;;;;;;;5020551;28;20045;-76
2022/09/08 14:28:00;;;;;;;1.45;1.27;;;;;;;;;;5016372;28;20046;-75
2022/09/08 14:30:41;;;;;;;2.03;1.27;;;;;;;;;;5024751;28;20046;-75
2022/09/08 14:33:13;;;;;;;1.60;1.38;;;;;;;;;;5021271;28;20131;-75
2022/09/08 14:35:49;;;;;;;0.90;0.90;;;;;;;;;;5014945;28;20121;-75
2022/09/08 14:38:31;;;;;;;1.45;1.35;;;;;;;;;;5021361;28;20045;-76
2022/09/08 14:41:05;;;;;;;1.00;1.00;;;;;;;;;;5022284;28;20419;-76
2022/09/08 14:43:34;;;;;;;1.38;1.27;;;;;;;;;;5035981;28;20069;-75
2022/09/08 14:46:07;;;;;;;1.02;1.00;;;;;;;;;;5006750;28;20042;-75
2022/09/08 14:48:52;;;;;;;0.73;0.73;;;;;;;;;;5019740;28;20072;-75
2022/09/08 14:51:37;;;;;;;0.70;0.70;;;;;;;;;;5034718;28;20045;-75
2022/09/08 14:54:03;;;;;;;0.60;0.50;;;;;;;;;;5009838;28;20049;-74
2022/09/08 14:56:30;;;;;;;0.90;0.90;;;;;;;;;;5021068;28;20119;-75
2022/09/08 14:58:58;;;;;;;1.30;1.20;;;;;;;;;;5024604;28;20060;-75
2022/09/08 15:01:29;;;;;;;1.48;1.05;;;;;;;;;;5018347;28;20064;-75
2022/09/08 15:04:03;;;;;;;1.20;1.10;;;;;;;;;;5017671;28;20046;-75
2022/09/08 15:06:37;;;;;;;0.98;0.98;;;;;;;;;;5018443;28;20132;-74
2022/09/08 15:09:24;;;;;;;1.30;1.30;;;;;;;;;;5015125;28;20065;-77
2022/09/08 15:11:54;;;;;;;1.08;1.00;;;;;;;;;;5018990;28;20045;-77
2022/09/08 15:14:23;;;;;;;0.90;0.90;;;;;;;;;;5018137;28;20120;-77
2022/09/08 15:16:51;;;;;;;0.60;0.60;;;;;;;;;;5022616;28;20037;-77
2022/09/08 15:19:28;;;;;;;0.60;0.60;;;;;;;;;;5021049;28;20041;-78